Time;durP1;ratioP1;P1;durP2;ratioP2;P2;SDS_P1;SDS_P2;PMS_P1;PMS_P2;Temp;Humidity;BMP_temperature;BMP_pressure;BME280_temperature;BME280_humidity;BME280_pressure;Samples;Min_cycle;Max_cycle;Signal;HPM_P1;HPM_P2
2023/07/16 00:00:50;;;;;;;8.65;2.67;;;;;;;;;;5082917;28;20080;-73
2023/07/16 00:03:16;;;;;;;8.85;2.72;;;;;;;;;;5071936;28;20488;-75
2023/07/16 00:05:45;;;;;;;9.57;2.70;;;;;;;;;;5073862;28;20028;-75
2023/07/16 00:08:11;;;;;;;11.43;2.85;;;;;;;;;;5072771;28;20456;-73
2023/07/16 00:10:37;;;;;;;8.23;2.80;;;;;;;;;;5072436;28;20390;-73
2023/07/16 00:13:04;;;;;;;8.25;2.85;;;;;;;;;;5071597;28;20112;-74
2023/07/16 00:15:30;;;;;;;11.43;2.92;;;;;;;;;;5071824;28;20017;-74
2023/07/16 00:17:56;;;;;;;8.98;2.72;;;;;;;;;;5073181;28;20020;-73
2023/07/16 00:20:25;;;;;;;9.02;2.90;;;;;;;;;;5073324;28;20359;-75
2023/07/16 00:22:51;;;;;;;8.57;3.22;;;;;;;;;;5073905;28;20095;-73
2023/07/16 00:25:18;;;;;;;8.13;2.83;;;;;;;;;;5072272;28;20286;-73
2023/07/16 00:27:44;;;;;;;11.95;2.80;;;;;;;;;;5070485;28;20115;-74
2023/07/16 00:30:10;;;;;;;10.70;3.90;;;;;;;;;;5072169;28;20056;-72
2023/07/16 00:32:36;;;;;;;8.40;2.53;;;;;;;;;;5071372;28;20024;-73
2023/07/16 00:35:02;;;;;;;9.27;2.83;;;;;;;;;;5074380;28;20046;-73
2023/07/16 00:37:28;;;;;;;10.45;3.13;;;;;;;;;;5073667;28;20107;-74
2023/07/16 00:39:54;;;;;;;8.48;2.40;;;;;;;;;;5073744;28;20088;-74
2023/07/16 00:42:20;;;;;;;9.68;2.78;;;;;;;;;;5073171;28;20101;-75
2023/07/16 00:44:46;;;;;;;9.20;3.05;;;;;;;;;;5072150;28;20434;-73
2023/07/16 00:47:13;;;;;;;6.63;2.78;;;;;;;;;;5072130;28;20074;-73
2023/07/16 00:49:39;;;;;;;10.88;2.40;;;;;;;;;;5072074;28;20081;-73
2023/07/16 00:52:06;;;;;;;11.52;2.60;;;;;;;;;;5071259;28;20028;-73
2023/07/16 00:54:32;;;;;;;8.32;2.65;;;;;;;;;;5071829;28;20028;-72
2023/07/16 00:56:58;;;;;;;7.68;2.60;;;;;;;;;;5071864;28;20086;-74
2023/07/16 00:59:24;;;;;;;8.93;2.60;;;;;;;;;;5074535;28;20419;-74
2023/07/16 01:01:50;;;;;;;8.18;2.42;;;;;;;;;;5071136;28;20458;-74
2023/07/16 01:04:16;;;;;;;12.50;3.38;;;;;;;;;;5073443;28;20082;-76
2023/07/16 01:06:44;;;;;;;7.70;2.50;;;;;;;;;;5073159;28;20095;-74
2023/07/16 01:09:20;;;;;;;8.20;2.90;;;;;;;;;;5074835;28;20028;-74
2023/07/16 01:11:47;;;;;;;9.43;2.60;;;;;;;;;;5073154;28;20037;-74
2023/07/16 01:14:13;;;;;;;5.43;2.22;;;;;;;;;;5071263;28;20041;-74
2023/07/16 01:16:39;;;;;;;7.07;2.58;;;;;;;;;;5071330;28;20492;-74
2023/07/16 01:19:05;;;;;;;5.55;2.40;;;;;;;;;;5068989;28;20056;-76
2023/07/16 01:21:46;;;;;;;7.72;2.92;;;;;;;;;;5070977;28;20052;-75
2023/07/16 01:24:18;;;;;;;8.82;2.80;;;;;;;;;;5071152;28;20020;-74
2023/07/16 01:26:47;;;;;;;7.68;2.67;;;;;;;;;;5071556;28;20028;-72
2023/07/16 01:29:29;;;;;;;9.63;2.50;;;;;;;;;;5071368;28;20039;-73
2023/07/16 01:31:56;;;;;;;8.75;2.70;;;;;;;;;;5071019;28;20028;-74
2023/07/16 01:34:24;;;;;;;5.88;2.22;;;;;;;;;;5072602;28;20028;-73
2023/07/16 01:36:50;;;;;;;7.18;2.33;;;;;;;;;;5081444;28;20082;-72
2023/07/16 01:39:17;;;;;;;7.18;2.55;;;;;;;;;;5075386;28;20021;-73
2023/07/16 01:41:42;;;;;;;7.30;2.72;;;;;;;;;;5070185;28;20055;-73
2023/07/16 01:44:09;;;;;;;11.00;2.80;;;;;;;;;;5071258;28;20028;-72
2023/07/16 01:46:35;;;;;;;8.43;2.40;;;;;;;;;;5071778;28;20085;-74
2023/07/16 01:49:01;;;;;;;3.75;2.20;;;;;;;;;;5071202;28;20082;-74
2023/07/16 01:51:27;;;;;;;5.95;2.53;;;;;;;;;;5071040;28;20020;-74
2023/07/16 01:53:53;;;;;;;5.32;2.17;;;;;;;;;;5070827;28;20063;-74
2023/07/16 01:56:19;;;;;;;7.05;2.10;;;;;;;;;;5071320;28;20416;-75
2023/07/16 01:58:45;;;;;;;7.13;2.50;;;;;;;;;;5069949;28;20054;-74
2023/07/16 02:01:11;;;;;;;10.20;3.08;;;;;;;;;;5070739;28;20021;-75
2023/07/16 02:03:37;;;;;;;6.88;2.28;;;;;;;;;;5070688;28;20025;-75
2023/07/16 02:06:03;;;;;;;7.32;2.53;;;;;;;;;;5071356;28;20024;-74
2023/07/16 02:08:29;;;;;;;8.02;2.90;;;;;;;;;;5071357;28;20032;-74
2023/07/16 02:10:55;;;;;;;7.60;2.88;;;;;;;;;;5071343;28;20029;-74
2023/07/16 02:13:20;;;;;;;7.50;2.58;;;;;;;;;;5071284;28;20104;-74
2023/07/16 02:15:46;;;;;;;9.32;2.90;;;;;;;;;;5072329;28;20058;-74
2023/07/16 02:18:12;;;;;;;7.18;2.42;;;;;;;;;;5073714;28;20020;-74
2023/07/16 02:20:38;;;;;;;8.43;2.55;;;;;;;;;;5072352;28;20109;-74
2023/07/16 02:23:04;;;;;;;8.45;2.38;;;;;;;;;;5070689;28;20017;-73
2023/07/16 02:25:30;;;;;;;6.70;2.42;;;;;;;;;;5071302;28;20081;-75
2023/07/16 02:27:56;;;;;;;10.30;2.83;;;;;;;;;;5071802;28;20021;-74
2023/07/16 02:30:22;;;;;;;7.90;2.70;;;;;;;;;;5072342;28;20082;-74
2023/07/16 02:32:48;;;;;;;11.15;3.10;;;;;;;;;;5071509;28;20051;-74
2023/07/16 02:35:14;;;;;;;6.78;2.67;;;;;;;;;;5070776;28;20074;-74
2023/07/16 02:37:40;;;;;;;8.63;2.80;;;;;;;;;;5071567;28;20039;-74
2023/07/16 02:40:07;;;;;;;7.75;2.42;;;;;;;;;;5071569;28;20020;-73
2023/07/16 02:42:33;;;;;;;5.70;2.75;;;;;;;;;;5070648;28;20324;-73
2023/07/16 02:44:59;;;;;;;9.05;2.63;;;;;;;;;;5070384;28;20111;-74
2023/07/16 02:47:25;;;;;;;10.60;2.63;;;;;;;;;;5069124;28;20394;-73
2023/07/16 02:49:52;;;;;;;5.28;2.58;;;;;;;;;;5072129;28;20067;-73
2023/07/16 02:52:18;;;;;;;8.88;2.63;;;;;;;;;;5071782;28;20035;-74
2023/07/16 02:54:44;;;;;;;10.57;3.15;;;;;;;;;;5071056;28;20055;-73
2023/07/16 02:57:10;;;;;;;6.13;2.22;;;;;;;;;;5071346;28;20469;-72
2023/07/16 02:59:36;;;;;;;8.73;2.63;;;;;;;;;;5070619;28;20044;-72
2023/07/16 03:02:02;;;;;;;7.68;2.70;;;;;;;;;;5071020;28;20025;-74
2023/07/16 03:04:28;;;;;;;9.95;3.00;;;;;;;;;;5071846;28;20052;-74
2023/07/16 03:06:54;;;;;;;6.18;2.70;;;;;;;;;;5071303;28;20052;-72
2023/07/16 03:09:20;;;;;;;9.73;2.92;;;;;;;;;;5071286;28;20067;-73
2023/07/16 03:11:46;;;;;;;8.38;3.00;;;;;;;;;;5072186;28;20040;-74
2023/07/16 03:14:12;;;;;;;8.32;2.60;;;;;;;;;;5073818;28;20298;-74
2023/07/16 03:16:38;;;;;;;10.05;3.03;;;;;;;;;;5076262;28;20064;-73
2023/07/16 03:19:04;;;;;;;6.13;2.65;;;;;;;;;;5087219;28;20066;-71
2023/07/16 03:21:30;;;;;;;6.55;3.30;;;;;;;;;;5079957;28;20095;-74
2023/07/16 03:23:56;;;;;;;8.10;2.83;;;;;;;;;;5076837;28;20024;-74
2023/07/16 03:26:22;;;;;;;6.68;3.03;;;;;;;;;;5077259;28;20021;-73
2023/07/16 03:28:48;;;;;;;7.95;2.70;;;;;;;;;;5080180;28;20060;-75
2023/07/16 03:31:14;;;;;;;8.38;2.53;;;;;;;;;;5079666;28;20025;-73
2023/07/16 03:33:40;;;;;;;7.32;2.65;;;;;;;;;;5077259;28;20025;-73
2023/07/16 03:36:06;;;;;;;10.75;2.85;;;;;;;;;;5074208;28;20025;-74
2023/07/16 03:38:32;;;;;;;6.72;2.88;;;;;;;;;;5074621;28;20021;-74
2023/07/16 03:40:58;;;;;;;9.70;2.90;;;;;;;;;;5080352;28;20055;-74
2023/07/16 03:43:24;;;;;;;14.15;3.25;;;;;;;;;;5079137;28;20028;-74
2023/07/16 03:45:50;;;;;;;5.40;2.30;;;;;;;;;;5073575;28;20025;-74
2023/07/16 03:48:16;;;;;;;10.35;2.97;;;;;;;;;;5072665;28;20033;-74
2023/07/16 03:50:42;;;;;;;9.38;2.88;;;;;;;;;;5074223;28;20393;-73
2023/07/16 03:53:08;;;;;;;8.10;2.67;;;;;;;;;;5073538;28;20075;-73
2023/07/16 03:55:34;;;;;;;8.30;2.75;;;;;;;;;;5073691;28;20021;-73
2023/07/16 03:58:00;;;;;;;10.32;2.85;;;;;;;;;;5075237;28;20020;-75
2023/07/16 04:00:26;;;;;;;8.18;2.83;;;;;;;;;;5077092;28;20055;-74
2023/07/16 04:02:52;;;;;;;10.63;2.97;;;;;;;;;;5077850;28;20086;-74
2023/07/16 04:05:18;;;;;;;9.52;2.50;;;;;;;;;;5072282;28;20158;-73
2023/07/16 04:07:44;;;;;;;7.20;2.72;;;;;;;;;;5072868;28;20474;-73
2023/07/16 04:10:10;;;;;;;10.02;3.00;;;;;;;;;;5072631;28;20099;-73
2023/07/16 04:12:36;;;;;;;9.18;3.05;;;;;;;;;;5071553;28;20155;-73
2023/07/16 04:15:07;;;;;;;10.15;3.10;;;;;;;;;;5072025;28;20474;-72
2023/07/16 04:17:33;;;;;;;7.38;2.80;;;;;;;;;;5071840;28;20388;-73
2023/07/16 04:19:59;;;;;;;11.18;3.05;;;;;;;;;;5072381;28;20029;-72
2023/07/16 04:22:25;;;;;;;8.70;2.90;;;;;;;;;;5071193;28;20025;-73
2023/07/16 04:24:51;;;;;;;8.10;3.10;;;;;;;;;;5073854;28;20052;-74
2023/07/16 04:27:17;;;;;;;5.72;3.10;;;;;;;;;;5071280;28;20024;-73
2023/07/16 04:29:43;;;;;;;9.30;3.22;;;;;;;;;;5071868;28;20421;-74
2023/07/16 04:32:09;;;;;;;8.95;3.35;;;;;;;;;;5071167;28;20059;-73
2023/07/16 04:34:35;;;;;;;9.15;3.00;;;;;;;;;;5071962;28;20065;-73
2023/07/16 04:37:01;;;;;;;8.38;2.95;;;;;;;;;;5071640;28;20465;-74
2023/07/16 04:39:27;;;;;;;9.15;3.22;;;;;;;;;;5071794;28;20024;-73
2023/07/16 04:41:53;;;;;;;8.10;2.92;;;;;;;;;;5070794;28;20474;-73
2023/07/16 04:44:19;;;;;;;11.13;2.80;;;;;;;;;;5072070;28;20398;-72
2023/07/16 04:46:45;;;;;;;12.23;3.00;;;;;;;;;;5079048;28;20042;-74
2023/07/16 04:49:11;;;;;;;9.13;2.70;;;;;;;;;;5071601;28;20028;-74
2023/07/16 04:51:37;;;;;;;14.32;3.47;;;;;;;;;;5071513;28;20024;-76
2023/07/16 04:54:03;;;;;;;7.85;2.90;;;;;;;;;;5077366;28;20081;-74
2023/07/16 04:56:29;;;;;;;9.40;2.70;;;;;;;;;;5079183;28;20106;-74
2023/07/16 04:58:55;;;;;;;13.20;3.20;;;;;;;;;;5084008;28;20084;-76
2023/07/16 05:01:21;;;;;;;8.73;2.97;;;;;;;;;;5085853;28;20024;-75
2023/07/16 05:03:47;;;;;;;9.93;2.50;;;;;;;;;;5081234;28;20225;-76
2023/07/16 05:06:13;;;;;;;11.27;2.88;;;;;;;;;;5072955;28;20028;-75
2023/07/16 05:08:39;;;;;;;7.80;2.40;;;;;;;;;;5069089;28;20458;-74
2023/07/16 05:11:05;;;;;;;9.93;2.92;;;;;;;;;;5076792;28;20115;-75
2023/07/16 05:13:31;;;;;;;13.07;2.53;;;;;;;;;;5072795;28;20060;-75
2023/07/16 05:15:57;;;;;;;9.10;2.90;;;;;;;;;;5070958;28;20084;-76
2023/07/16 05:18:23;;;;;;;11.93;2.70;;;;;;;;;;5067589;28;20021;-75
2023/07/16 05:20:49;;;;;;;11.40;2.92;;;;;;;;;;5075712;28;20016;-76
2023/07/16 05:23:15;;;;;;;9.73;2.92;;;;;;;;;;5075045;28;20078;-77
2023/07/16 05:25:51;;;;;;;9.77;2.72;;;;;;;;;;5070872;28;20592;-74
2023/07/16 05:28:19;;;;;;;11.02;2.75;;;;;;;;;;5065982;28;20052;-76
2023/07/16 05:30:45;;;;;;;12.75;2.90;;;;;;;;;;5074112;28;20027;-72
2023/07/16 05:33:11;;;;;;;8.15;2.58;;;;;;;;;;5069819;28;20094;-72
2023/07/16 05:35:38;;;;;;;7.75;3.08;;;;;;;;;;5071282;28;20016;-74
2023/07/16 05:38:04;;;;;;;15.50;3.10;;;;;;;;;;5071206;28;20063;-73
2023/07/16 05:40:30;;;;;;;14.80;2.90;;;;;;;;;;5080859;28;20123;-73
2023/07/16 05:42:56;;;;;;;10.85;2.65;;;;;;;;;;5069825;28;20032;-75
2023/07/16 05:45:23;;;;;;;9.18;2.70;;;;;;;;;;5070238;28;20548;-74
2023/07/16 05:47:49;;;;;;;11.35;2.45;;;;;;;;;;5069862;28;20031;-73
2023/07/16 05:50:15;;;;;;;9.88;2.58;;;;;;;;;;5075444;28;20040;-74
2023/07/16 05:52:41;;;;;;;11.30;3.10;;;;;;;;;;5069705;28;20111;-73
2023/07/16 05:55:07;;;;;;;6.97;2.45;;;;;;;;;;5070350;28;20099;-73
2023/07/16 05:57:33;;;;;;;13.05;3.70;;;;;;;;;;5072355;28;20028;-72
2023/07/16 05:59:59;;;;;;;11.73;2.90;;;;;;;;;;5070203;28;20439;-74
2023/07/16 06:02:25;;;;;;;11.93;3.15;;;;;;;;;;5069279;28;20310;-74
2023/07/16 06:04:51;;;;;;;8.55;2.85;;;;;;;;;;5070280;28;20029;-74
2023/07/16 06:07:17;;;;;;;11.30;3.28;;;;;;;;;;5072982;28;20059;-73
2023/07/16 06:09:43;;;;;;;19.33;2.97;;;;;;;;;;5071341;28;20028;-73
2023/07/16 06:12:09;;;;;;;17.15;3.28;;;;;;;;;;5069587;28;20033;-72
2023/07/16 06:14:35;;;;;;;13.23;3.58;;;;;;;;;;5069618;28;20520;-73
2023/07/16 06:17:01;;;;;;;14.23;3.25;;;;;;;;;;5072321;28;20060;-74
2023/07/16 06:19:27;;;;;;;8.95;2.78;;;;;;;;;;5070236;28;20532;-73
2023/07/16 06:21:53;;;;;;;13.65;3.47;;;;;;;;;;5076345;28;20117;-74
2023/07/16 06:24:19;;;;;;;10.60;3.25;;;;;;;;;;5070911;28;20029;-73
2023/07/16 06:26:47;;;;;;;12.38;3.10;;;;;;;;;;5070377;28;20028;-73
2023/07/16 06:29:13;;;;;;;11.73;3.28;;;;;;;;;;5070458;28;20111;-72
2023/07/16 06:31:39;;;;;;;11.35;2.97;;;;;;;;;;5070767;28;20100;-73
2023/07/16 06:34:05;;;;;;;11.80;3.30;;;;;;;;;;5068178;28;20036;-73
2023/07/16 06:36:31;;;;;;;15.65;3.20;;;;;;;;;;5072197;28;20029;-75
2023/07/16 06:38:57;;;;;;;13.90;3.47;;;;;;;;;;5070691;28;20481;-73
2023/07/16 06:41:23;;;;;;;12.48;3.42;;;;;;;;;;5069888;28;20215;-78
2023/07/16 06:43:49;;;;;;;11.65;3.53;;;;;;;;;;5071105;28;20415;-75
2023/07/16 06:46:15;;;;;;;17.17;4.60;;;;;;;;;;5071687;28;20035;-72
2023/07/16 06:48:41;;;;;;;18.45;3.92;;;;;;;;;;5072447;28;20024;-73
2023/07/16 06:51:07;;;;;;;16.48;4.28;;;;;;;;;;5075580;28;20526;-73
2023/07/16 06:53:33;;;;;;;14.90;4.32;;;;;;;;;;5072799;28;20051;-73
2023/07/16 06:55:59;;;;;;;21.45;4.78;;;;;;;;;;5073702;28;20025;-72
2023/07/16 06:58:33;;;;;;;11.55;3.70;;;;;;;;;;5073713;28;20492;-74
2023/07/16 07:00:59;;;;;;;14.07;3.90;;;;;;;;;;5073895;28;20100;-73
2023/07/16 07:03:25;;;;;;;18.42;4.75;;;;;;;;;;5073126;28;20035;-72
2023/07/16 07:05:51;;;;;;;10.38;4.38;;;;;;;;;;5074467;28;20028;-74
2023/07/16 07:08:17;;;;;;;27.35;7.07;;;;;;;;;;5073949;28;20035;-75
2023/07/16 07:10:43;;;;;;;15.75;5.40;;;;;;;;;;5073922;28;20027;-74
2023/07/16 07:13:08;;;;;;;16.67;4.45;;;;;;;;;;5072909;28;20020;-73
2023/07/16 07:15:34;;;;;;;12.18;3.80;;;;;;;;;;5073584;28;20021;-73
2023/07/16 07:18:00;;;;;;;13.93;4.28;;;;;;;;;;5073561;28;20127;-74
2023/07/16 07:20:26;;;;;;;18.67;3.75;;;;;;;;;;5073097;28;20021;-75
2023/07/16 07:22:52;;;;;;;10.98;3.65;;;;;;;;;;5073095;28;20474;-73
2023/07/16 07:25:18;;;;;;;19.05;4.50;;;;;;;;;;5073378;28;20021;-74
2023/07/16 07:27:44;;;;;;;21.67;4.22;;;;;;;;;;5073037;28;20466;-73
2023/07/16 07:30:10;;;;;;;13.15;4.10;;;;;;;;;;5073135;28;20105;-74
2023/07/16 07:32:38;;;;;;;19.27;4.05;;;;;;;;;;5071992;28;20440;-73
2023/07/16 07:35:05;;;;;;;21.67;4.50;;;;;;;;;;5073164;28;20027;-74
2023/07/16 07:37:31;;;;;;;19.58;4.00;;;;;;;;;;5073095;28;20032;-75
2023/07/16 07:39:59;;;;;;;14.38;4.10;;;;;;;;;;5074372;28;20016;-73
2023/07/16 07:42:26;;;;;;;14.90;4.88;;;;;;;;;;5072622;28;20078;-75
2023/07/16 07:44:52;;;;;;;10.23;3.40;;;;;;;;;;5072669;28;20048;-74
2023/07/16 07:47:18;;;;;;;17.13;3.80;;;;;;;;;;5071745;28;20071;-74
2023/07/16 07:49:44;;;;;;;20.83;4.50;;;;;;;;;;5073261;28;20028;-75
2023/07/16 07:52:10;;;;;;;12.77;3.80;;;;;;;;;;5072986;28;20028;-75
2023/07/16 07:54:36;;;;;;;15.45;4.35;;;;;;;;;;5073895;28;20064;-74
2023/07/16 07:57:06;;;;;;;17.27;3.28;;;;;;;;;;5073892;28;20036;-74
2023/07/16 07:59:32;;;;;;;15.75;3.53;;;;;;;;;;5072389;28;20458;-73
2023/07/16 08:01:58;;;;;;;11.30;3.53;;;;;;;;;;5073311;28;20029;-76
2023/07/16 08:04:25;;;;;;;20.35;3.75;;;;;;;;;;5074247;28;20021;-74
2023/07/16 08:06:51;;;;;;;11.90;3.33;;;;;;;;;;5074054;28;20523;-72
2023/07/16 08:09:17;;;;;;;15.93;3.47;;;;;;;;;;5074544;28;20551;-75
2023/07/16 08:11:43;;;;;;;18.77;3.97;;;;;;;;;;5074591;28;20032;-74
2023/07/16 08:14:09;;;;;;;12.75;3.75;;;;;;;;;;5074304;28;20028;-74
2023/07/16 08:16:35;;;;;;;13.25;3.60;;;;;;;;;;5077248;28;20037;-74
2023/07/16 08:19:01;;;;;;;14.77;4.07;;;;;;;;;;5075914;28;20071;-73
2023/07/16 08:21:27;;;;;;;13.82;3.65;;;;;;;;;;5076879;28;20025;-73
2023/07/16 08:23:53;;;;;;;15.57;3.33;;;;;;;;;;5073916;28;20055;-74
2023/07/16 08:26:19;;;;;;;11.88;3.47;;;;;;;;;;5080139;28;20029;-74
2023/07/16 08:28:45;;;;;;;15.55;3.15;;;;;;;;;;5087063;28;20021;-73
2023/07/16 08:31:12;;;;;;;12.57;3.38;;;;;;;;;;5079552;28;20543;-75
2023/07/16 08:33:38;;;;;;;16.45;3.13;;;;;;;;;;5074705;28;20035;-75
2023/07/16 08:36:04;;;;;;;13.27;2.92;;;;;;;;;;5072935;28;20029;-75
2023/07/16 08:38:30;;;;;;;10.07;3.15;;;;;;;;;;5071460;28;20043;-75
2023/07/16 08:40:56;;;;;;;11.68;3.20;;;;;;;;;;5072768;28;20467;-76
2023/07/16 08:43:23;;;;;;;11.88;3.72;;;;;;;;;;5074091;28;20078;-75
2023/07/16 08:45:49;;;;;;;10.95;3.42;;;;;;;;;;5073793;28;20072;-75
2023/07/16 08:48:16;;;;;;;14.40;3.20;;;;;;;;;;5072991;28;20051;-76
2023/07/16 08:50:43;;;;;;;10.15;2.67;;;;;;;;;;5072149;28;20086;-74
2023/07/16 08:53:09;;;;;;;12.32;3.22;;;;;;;;;;5071487;28;20029;-75
2023/07/16 08:55:36;;;;;;;10.27;3.08;;;;;;;;;;5073277;28;20032;-74
2023/07/16 08:58:03;;;;;;;21.15;5.80;;;;;;;;;;5071708;28;20062;-74
2023/07/16 09:00:29;;;;;;;13.27;4.68;;;;;;;;;;5071568;28;20462;-74
2023/07/16 09:02:55;;;;;;;16.05;4.03;;;;;;;;;;5070920;28;20060;-73
2023/07/16 09:05:22;;;;;;;16.75;4.75;;;;;;;;;;5069792;28;20059;-73
2023/07/16 09:07:48;;;;;;;17.00;4.20;;;;;;;;;;5071971;28;20020;-78
2023/07/16 09:10:14;;;;;;;14.40;4.18;;;;;;;;;;5071827;28;20055;-76
2023/07/16 09:12:46;;;;;;;16.75;4.25;;;;;;;;;;5070752;28;20036;-76
2023/07/16 09:15:14;;;;;;;12.82;4.15;;;;;;;;;;5071568;28;20063;-75
2023/07/16 09:17:40;;;;;;;15.13;4.93;;;;;;;;;;5071317;28;20543;-75
2023/07/16 09:20:06;;;;;;;14.05;4.50;;;;;;;;;;5070824;28;20020;-74
2023/07/16 09:22:34;;;;;;;14.50;4.57;;;;;;;;;;5070576;28;20104;-74
2023/07/16 09:25:03;;;;;;;13.20;4.30;;;;;;;;;;5072596;28;20017;-76
2023/07/16 09:27:29;;;;;;;19.58;5.00;;;;;;;;;;5071797;28;20067;-73
2023/07/16 09:29:55;;;;;;;11.80;4.80;;;;;;;;;;5071666;28;20066;-74
2023/07/16 09:32:21;;;;;;;12.88;5.07;;;;;;;;;;5070594;28;20469;-75
2023/07/16 09:34:50;;;;;;;14.30;4.80;;;;;;;;;;5072392;28;20052;-74
2023/07/16 09:37:16;;;;;;;18.73;5.30;;;;;;;;;;5075575;28;20070;-77
2023/07/16 09:39:43;;;;;;;9.50;4.60;;;;;;;;;;5073086;28;20021;-77
2023/07/16 09:42:09;;;;;;;10.75;4.63;;;;;;;;;;5073419;28;20024;-78
2023/07/16 09:44:35;;;;;;;12.45;3.92;;;;;;;;;;5074714;28;20056;-74
2023/07/16 09:47:01;;;;;;;14.73;5.32;;;;;;;;;;5073046;28;20103;-73
2023/07/16 09:49:30;;;;;;;11.05;4.63;;;;;;;;;;5070003;28;20047;-74
2023/07/16 09:51:57;;;;;;;11.98;4.22;;;;;;;;;;5070455;28;20025;-76
2023/07/16 09:54:25;;;;;;;17.23;5.00;;;;;;;;;;5070953;28;20028;-73
2023/07/16 09:56:53;;;;;;;11.55;4.57;;;;;;;;;;5070834;28;20032;-73
2023/07/16 09:59:21;;;;;;;13.80;5.28;;;;;;;;;;5071043;28;20020;-75
2023/07/16 10:01:47;;;;;;;16.00;5.20;;;;;;;;;;5078950;28;20340;-74
2023/07/16 10:04:14;;;;;;;12.65;4.53;;;;;;;;;;5071048;28;20206;-73
2023/07/16 10:06:49;;;;;;;15.70;5.32;;;;;;;;;;5071606;28;20035;-74
2023/07/16 10:09:15;;;;;;;12.45;4.90;;;;;;;;;;5074156;28;20102;-81
2023/07/16 10:11:42;;;;;;;12.75;4.20;;;;;;;;;;5072918;28;20044;-75
2023/07/16 10:14:08;;;;;;;16.63;4.78;;;;;;;;;;5072290;28;20021;-73
2023/07/16 10:16:38;;;;;;;10.75;4.75;;;;;;;;;;5070899;28;20047;-75
2023/07/16 10:19:05;;;;;;;14.63;5.30;;;;;;;;;;5071188;28;20021;-77
2023/07/16 10:21:40;;;;;;;11.65;5.32;;;;;;;;;;5074721;28;20024;-77
2023/07/16 10:24:06;;;;;;;14.00;4.93;;;;;;;;;;5072230;28;20021;-75
2023/07/16 10:26:32;;;;;;;12.73;4.07;;;;;;;;;;5076990;28;20421;-77
2023/07/16 10:28:58;;;;;;;10.10;3.80;;;;;;;;;;5075922;28;20040;-76
2023/07/16 10:31:25;;;;;;;8.18;3.38;;;;;;;;;;5075787;28;20040;-74
2023/07/16 10:34:07;;;;;;;13.35;4.47;;;;;;;;;;5074087;28;20028;-75
2023/07/16 10:36:40;;;;;;;10.75;3.83;;;;;;;;;;5073995;28;20028;-75
2023/07/16 10:39:06;;;;;;;10.32;3.67;;;;;;;;;;5074162;28;20032;-74
2023/07/16 10:41:32;;;;;;;16.80;4.20;;;;;;;;;;5075190;28;20177;-73
2023/07/16 10:43:59;;;;;;;9.40;4.43;;;;;;;;;;5074192;28;20048;-75
2023/07/16 10:46:25;;;;;;;12.82;4.40;;;;;;;;;;5074320;28;20024;-72
2023/07/16 10:48:51;;;;;;;10.50;4.28;;;;;;;;;;5074299;28;20402;-73
2023/07/16 10:51:17;;;;;;;24.38;4.47;;;;;;;;;;5074119;28;20060;-74
2023/07/16 10:53:43;;;;;;;11.15;3.88;;;;;;;;;;5073580;28;20135;-73
2023/07/16 10:56:09;;;;;;;15.27;4.47;;;;;;;;;;5074216;28;20460;-73
2023/07/16 10:58:37;;;;;;;13.73;6.32;;;;;;;;;;5074643;28;20058;-74
2023/07/16 11:01:03;;;;;;;11.63;3.78;;;;;;;;;;5074162;28;20016;-74
2023/07/16 11:03:29;;;;;;;8.18;4.40;;;;;;;;;;5072909;28;20043;-73
2023/07/16 11:05:55;;;;;;;10.95;4.20;;;;;;;;;;5074071;28;20025;-74
2023/07/16 11:08:25;;;;;;;12.57;4.00;;;;;;;;;;5074556;28;20017;-74
2023/07/16 11:10:55;;;;;;;13.93;4.25;;;;;;;;;;5074422;28;20048;-74
2023/07/16 11:13:25;;;;;;;10.50;4.78;;;;;;;;;;5070847;28;20031;-76
2023/07/16 11:15:51;;;;;;;15.35;4.70;;;;;;;;;;5074352;28;20021;-72
2023/07/16 11:18:18;;;;;;;16.15;4.10;;;;;;;;;;5073302;28;20043;-73
2023/07/16 11:20:44;;;;;;;8.77;4.25;;;;;;;;;;5073351;28;20103;-74
2023/07/16 11:23:11;;;;;;;12.02;4.38;;;;;;;;;;5072501;28;20103;-73
2023/07/16 11:25:37;;;;;;;14.27;4.00;;;;;;;;;;5072922;28;20028;-72
2023/07/16 11:28:03;;;;;;;12.18;4.35;;;;;;;;;;5073445;28;20036;-75
2023/07/16 11:30:29;;;;;;;10.35;4.82;;;;;;;;;;5072485;28;20044;-73
2023/07/16 11:32:55;;;;;;;14.38;4.88;;;;;;;;;;5071595;28;20040;-74
2023/07/16 11:35:21;;;;;;;10.30;4.20;;;;;;;;;;5072513;28;20024;-75
2023/07/16 11:37:47;;;;;;;16.85;4.18;;;;;;;;;;5072693;28;20021;-73
2023/07/16 11:40:18;;;;;;;13.68;4.10;;;;;;;;;;5074499;28;20032;-71
2023/07/16 11:42:44;;;;;;;14.15;4.38;;;;;;;;;;5074211;28;20025;-73
2023/07/16 11:45:20;;;;;;;13.02;3.72;;;;;;;;;;5079073;28;20027;-73
2023/07/16 11:47:47;;;;;;;9.93;3.83;;;;;;;;;;5075086;28;20021;-73
2023/07/16 11:50:13;;;;;;;11.70;4.63;;;;;;;;;;5072831;28;20033;-72
2023/07/16 11:52:40;;;;;;;9.55;4.18;;;;;;;;;;5071876;28;20024;-74
2023/07/16 11:55:06;;;;;;;8.35;3.50;;;;;;;;;;5073783;28;20025;-72
2023/07/16 11:57:32;;;;;;;16.40;3.67;;;;;;;;;;5074639;28;20024;-74
2023/07/16 11:59:58;;;;;;;8.40;3.55;;;;;;;;;;5075043;28;20034;-74
2023/07/16 12:02:27;;;;;;;13.00;3.38;;;;;;;;;;5073578;28;20095;-73
2023/07/16 12:04:53;;;;;;;10.52;3.40;;;;;;;;;;5073201;28;20482;-73
2023/07/16 12:07:35;;;;;;;10.73;3.83;;;;;;;;;;5072943;28;20048;-73
2023/07/16 12:10:03;;;;;;;9.18;4.32;;;;;;;;;;5073658;28;20435;-74
2023/07/16 12:12:29;;;;;;;7.57;3.65;;;;;;;;;;5072126;28;20498;-73
2023/07/16 12:14:55;;;;;;;9.77;3.88;;;;;;;;;;5072920;28;20044;-73
2023/07/16 12:17:21;;;;;;;10.18;3.95;;;;;;;;;;5072882;28;20029;-73
2023/07/16 12:19:47;;;;;;;12.32;3.85;;;;;;;;;;5074615;28;20021;-73
2023/07/16 12:22:14;;;;;;;9.95;3.63;;;;;;;;;;5074130;28;20471;-72
2023/07/16 12:24:40;;;;;;;10.82;3.58;;;;;;;;;;5071927;28;20024;-72
2023/07/16 12:27:06;;;;;;;12.95;3.88;;;;;;;;;;5072233;28;20034;-72
2023/07/16 12:29:32;;;;;;;8.35;3.40;;;;;;;;;;5071868;28;20048;-73
2023/07/16 12:31:59;;;;;;;11.13;3.42;;;;;;;;;;5072193;28;20066;-72
2023/07/16 12:34:25;;;;;;;14.27;4.40;;;;;;;;;;5072997;28;20555;-75
2023/07/16 12:36:51;;;;;;;8.25;3.42;;;;;;;;;;5072885;28;20028;-74
2023/07/16 12:39:18;;;;;;;10.68;3.08;;;;;;;;;;5073043;28;20021;-73
2023/07/16 12:41:44;;;;;;;15.77;3.65;;;;;;;;;;5072496;28;20432;-73
2023/07/16 12:44:10;;;;;;;9.48;3.08;;;;;;;;;;5073023;28;20028;-73
2023/07/16 12:46:36;;;;;;;8.30;3.42;;;;;;;;;;5071955;28;20070;-73
2023/07/16 12:49:02;;;;;;;7.80;3.25;;;;;;;;;;5072807;28;20024;-72
2023/07/16 12:51:28;;;;;;;11.13;3.20;;;;;;;;;;5072428;28;20029;-72
2023/07/16 12:53:54;;;;;;;12.15;3.70;;;;;;;;;;5072109;28;20032;-72
2023/07/16 12:56:20;;;;;;;11.50;3.60;;;;;;;;;;5072648;28;20541;-73
2023/07/16 12:58:47;;;;;;;9.98;3.63;;;;;;;;;;5072673;28;20107;-72
2023/07/16 13:01:13;;;;;;;10.48;3.80;;;;;;;;;;5072958;28;20024;-74
2023/07/16 13:03:39;;;;;;;8.93;3.97;;;;;;;;;;5071630;28;20028;-74
2023/07/16 13:06:05;;;;;;;7.47;3.53;;;;;;;;;;5073324;28;20091;-73
2023/07/16 13:08:31;;;;;;;11.18;3.65;;;;;;;;;;5072341;28;20427;-74
2023/07/16 13:10:57;;;;;;;8.23;3.30;;;;;;;;;;5073492;28;20024;-73
2023/07/16 13:13:23;;;;;;;10.30;4.03;;;;;;;;;;5071969;28;20371;-73
2023/07/16 13:15:49;;;;;;;5.82;3.13;;;;;;;;;;5072506;28;20032;-74
2023/07/16 13:18:16;;;;;;;9.00;3.58;;;;;;;;;;5071680;28;20174;-73
2023/07/16 13:20:42;;;;;;;13.70;6.65;;;;;;;;;;5072844;28;20373;-74
2023/07/16 13:23:08;;;;;;;10.70;3.78;;;;;;;;;;5074688;28;20020;-73
2023/07/16 13:25:35;;;;;;;8.23;3.42;;;;;;;;;;5074786;28;20025;-73
2023/07/16 13:28:01;;;;;;;12.80;3.30;;;;;;;;;;5073576;28;20028;-72
2023/07/16 13:30:27;;;;;;;9.02;3.00;;;;;;;;;;5072250;28;20417;-73
2023/07/16 13:32:55;;;;;;;9.18;2.97;;;;;;;;;;5071623;28;20029;-73
2023/07/16 13:35:22;;;;;;;10.63;3.50;;;;;;;;;;5071750;28;20050;-74
2023/07/16 13:37:48;;;;;;;10.60;3.45;;;;;;;;;;5072020;28;20545;-73
2023/07/16 13:40:14;;;;;;;8.27;3.55;;;;;;;;;;5071748;28;20111;-73
2023/07/16 13:42:40;;;;;;;7.63;3.85;;;;;;;;;;5071234;28;20027;-74
2023/07/16 13:45:06;;;;;;;9.48;3.50;;;;;;;;;;5074306;28;20640;-75
2023/07/16 13:47:32;;;;;;;11.80;3.40;;;;;;;;;;5071255;28;20028;-74
2023/07/16 13:49:58;;;;;;;8.45;3.13;;;;;;;;;;5072199;28;20067;-73
2023/07/16 13:52:24;;;;;;;10.20;3.80;;;;;;;;;;5072086;28;20170;-72
2023/07/16 13:54:50;;;;;;;7.63;3.42;;;;;;;;;;5074446;28;20098;-72
2023/07/16 13:57:16;;;;;;;8.13;3.22;;;;;;;;;;5073813;28;20036;-73
2023/07/16 13:59:42;;;;;;;7.65;3.10;;;;;;;;;;5070255;28;20111;-72
2023/07/16 14:02:08;;;;;;;17.05;3.95;;;;;;;;;;5071004;28;20540;-74
2023/07/16 14:04:34;;;;;;;12.95;3.20;;;;;;;;;;5071936;28;20020;-73
2023/07/16 14:07:00;;;;;;;9.57;3.67;;;;;;;;;;5071009;28;20123;-74
2023/07/16 14:09:26;;;;;;;10.10;3.13;;;;;;;;;;5071695;28;20060;-74
2023/07/16 14:11:52;;;;;;;6.93;3.45;;;;;;;;;;5069490;28;20032;-74
2023/07/16 14:14:18;;;;;;;9.13;3.60;;;;;;;;;;5071235;28;20102;-73
2023/07/16 14:16:44;;;;;;;9.05;3.53;;;;;;;;;;5072025;28;20029;-75
2023/07/16 14:19:12;;;;;;;10.68;3.33;;;;;;;;;;5072534;28;20070;-74
2023/07/16 14:21:38;;;;;;;9.23;3.30;;;;;;;;;;5073637;28;20044;-74
2023/07/16 14:24:04;;;;;;;13.45;3.45;;;;;;;;;;5072490;28;20024;-72
2023/07/16 14:26:30;;;;;;;9.05;3.55;;;;;;;;;;5072092;28;20032;-74
2023/07/16 14:28:56;;;;;;;18.63;3.90;;;;;;;;;;5071494;28;20104;-73
2023/07/16 14:31:22;;;;;;;10.32;3.80;;;;;;;;;;5071552;28;20048;-74